Gilman, Vermont
Current Conditions -  °F | °C
As of 6:19 AM on Sunday 21 Dec 2014 (Local Time) from KHIE Reporting Station
Overcast Overcast  
Wind Chill: 16°   Ceiling: 600
Heat Index: 16°   Visibility: 10mi
Dew Point: 13°   Wind: 0mph
Humidity: 88%   Direction: NA
Pressure: 30.28"   Gusts: NA
Location:  44.41°N, 71.72°W
Report Text: KHIE 211119Z AUTO 00000KT 10SM BKN006 OVC032 M09/M11 A3028 RMK AO2 T10891106
Loading
Personal Weather Stations






























Interactive Weather Map New forecast layout! Learn more

10-Day Weather Forecast

Advertisements
Track Severe Weather on mobile